Time;durP1;ratioP1;P1;durP2;ratioP2;P2;SDS_P1;SDS_P2;PMS_P1;PMS_P2;Temp;Humidity;BMP_temperature;BMP_pressure;BME280_temperature;BME280_humidity;BME280_pressure;Samples;Min_cycle;Max_cycle;Signal;HPM_P1;HPM_P2
2023/12/08 07:31:49;;;;;;;;;;;3.00;99.90;;;;;;4950579;28;1988378;-72
2023/12/08 07:34:14;;;;;;;;;;;3.00;99.90;;;;;;5021932;28;19971;-63
2023/12/08 07:36:40;;;;;;;;;;;3.00;99.90;;;;;;5023547;28;20134;-63
2023/12/08 07:39:06;;;;;;;;;;;3.00;99.90;;;;;;5028791;28;19941;-63
2023/12/08 07:41:32;;;;;;;;;;;3.10;99.90;;;;;;5029249;28;19945;-63
2023/12/08 07:43:57;;;;;;;;;;;3.10;99.90;;;;;;5022630;28;19945;-63
2023/12/08 07:46:27;;;;;;;;;;;3.10;99.90;;;;;;5029737;28;19953;-63
2023/12/08 07:48:52;;;;;;;;;;;3.20;99.90;;;;;;5032748;28;19939;-65
2023/12/08 07:51:19;;;;;;;;;;;3.30;99.90;;;;;;5032502;28;20753;-66
2023/12/08 07:53:44;;;;;;;;;;;3.50;99.90;;;;;;5031839;28;20624;-66
2023/12/08 07:56:12;;;;;;;;;;;3.60;99.90;;;;;;5021670;28;19939;-66
2023/12/08 07:58:37;;;;;;;;;;;3.60;99.90;;;;;;5018673;28;20408;-65
2023/12/08 08:01:03;;;;;;;;;;;3.70;99.90;;;;;;5023302;28;19937;-66
2023/12/08 08:03:29;;;;;;;;;;;3.80;99.90;;;;;;5024768;28;19937;-66
2023/12/08 08:05:54;;;;;;;;;;;3.70;99.90;;;;;;5030714;28;19944;-66
2023/12/08 08:08:21;;;;;;;;;;;3.50;99.90;;;;;;5034577;28;19943;-66
2023/12/08 08:10:46;;;;;;;;;;;3.30;99.90;;;;;;5032733;28;19941;-66
2023/12/08 08:13:12;;;;;;;;;;;3.30;99.90;;;;;;5029076;28;20065;-66
2023/12/08 08:15:37;;;;;;;;;;;3.30;99.90;;;;;;5023357;28;19944;-65
2023/12/08 08:18:03;;;;;;;;;;;3.30;99.90;;;;;;5032310;28;19930;-64
2023/12/08 08:20:29;;;;;;;;;;;3.40;99.90;;;;;;5030346;28;20338;-64
2023/12/08 08:22:55;;;;;;;;;;;3.40;99.90;;;;;;5010705;28;20486;-65
2023/12/08 08:25:20;;;;;;;;;;;3.30;99.90;;;;;;5025182;28;20011;-64
2023/12/08 08:27:46;;;;;;;;;;;3.30;99.90;;;;;;5029897;28;19958;-64
2023/12/08 08:30:12;;;;;;;;;;;3.40;99.90;;;;;;5024405;28;19971;-64
2023/12/08 08:32:37;;;;;;;;;;;3.40;99.90;;;;;;5034788;28;20024;-65
2023/12/08 08:35:03;;;;;;;;;;;3.40;99.90;;;;;;5030260;28;20038;-64
2023/12/08 08:37:29;;;;;;;;;;;3.50;99.90;;;;;;5030689;28;19953;-64
2023/12/08 08:39:54;;;;;;;;;;;3.50;99.90;;;;;;5019892;28;20029;-65
2023/12/08 08:42:19;;;;;;;;;;;3.60;99.90;;;;;;5018070;28;20302;-64
2023/12/08 08:44:45;;;;;;;;;;;3.60;99.90;;;;;;5018165;28;19933;-64
2023/12/08 08:47:12;;;;;;;;;;;3.70;99.90;;;;;;5019765;28;20008;-73
2023/12/08 08:49:37;;;;;;;;;;;3.90;99.90;;;;;;5018042;28;19937;-73
2023/12/08 08:52:03;;;;;;;;;;;4.00;99.90;;;;;;5021040;28;19943;-72
2023/12/08 08:54:29;;;;;;;;;;;4.00;99.90;;;;;;5012473;28;19969;-72
2023/12/08 08:56:54;;;;;;;;;;;4.20;99.90;;;;;;5016790;28;19934;-72
2023/12/08 08:59:20;;;;;;;;;;;4.20;99.90;;;;;;5016654;28;20251;-74
2023/12/08 09:01:45;;;;;;;;;;;4.30;99.90;;;;;;5018376;28;20036;-75
2023/12/08 09:04:10;;;;;;;;;;;4.40;99.90;;;;;;5019644;28;19947;-73
2023/12/08 09:06:36;;;;;;;;;;;4.50;99.90;;;;;;5016431;28;20381;-64
2023/12/08 09:09:04;;;;;;;;;;;4.50;99.90;;;;;;5016370;28;19937;-64
2023/12/08 09:11:29;;;;;;;;;;;4.40;99.90;;;;;;5013310;28;19987;-64
2023/12/08 09:13:55;;;;;;;;;;;4.20;99.90;;;;;;5014226;28;20392;-65
2023/12/08 09:16:20;;;;;;;;;;;4.10;99.90;;;;;;5015171;28;19941;-65
2023/12/08 09:18:46;;;;;;;;;;;4.00;99.90;;;;;;5012646;28;19926;-64
2023/12/08 09:21:12;;;;;;;;;;;3.90;99.90;;;;;;5017190;28;19931;-64
2023/12/08 09:23:37;;;;;;;;;;;3.80;99.90;;;;;;5017095;28;20333;-64
2023/12/08 09:26:03;;;;;;;;;;;3.80;99.90;;;;;;5014030;28;19934;-65
2023/12/08 09:28:29;;;;;;;;;;;3.90;99.90;;;;;;5017050;28;20207;-65
2023/12/08 09:30:54;;;;;;;;;;;3.90;99.90;;;;;;5010767;28;20554;-65
2023/12/08 09:33:20;;;;;;;;;;;4.10;99.90;;;;;;5009752;28;19933;-64
2023/12/08 09:35:45;;;;;;;;;;;4.10;99.90;;;;;;5009866;28;19938;-64
2023/12/08 09:38:11;;;;;;;;;;;3.90;99.90;;;;;;5011525;28;20361;-65
2023/12/08 09:40:37;;;;;;;;;;;3.90;99.90;;;;;;5008075;28;19929;-64
2023/12/08 09:43:11;;;;;;;;;;;4.00;99.90;;;;;;5016021;28;19936;-65
2023/12/08 09:45:37;;;;;;;;;;;4.10;99.90;;;;;;5009834;28;20552;-73
2023/12/08 09:48:05;;;;;;;;;;;4.10;99.90;;;;;;5016155;28;19984;-72
2023/12/08 09:50:32;;;;;;;;;;;4.10;99.90;;;;;;5009602;28;20030;-72
2023/12/08 09:52:58;;;;;;;;;;;4.20;99.90;;;;;;5014435;28;19935;-72
2023/12/08 09:55:23;;;;;;;;;;;4.30;99.90;;;;;;5005706;28;19944;-72
2023/12/08 09:57:50;;;;;;;;;;;4.40;99.90;;;;;;5015862;28;20663;-73
2023/12/08 10:00:17;;;;;;;;;;;4.50;99.90;;;;;;5017021;28;19959;-72
2023/12/08 10:02:43;;;;;;;;;;;4.50;99.90;;;;;;5020257;28;20031;-65
2023/12/08 10:05:11;;;;;;;;;;;4.60;99.90;;;;;;5003120;28;20376;-64
2023/12/08 10:07:38;;;;;;;;;;;4.50;99.90;;;;;;5016201;28;20054;-65
2023/12/08 10:10:04;;;;;;;;;;;4.50;99.90;;;;;;5018727;28;19928;-63
2023/12/08 10:12:30;;;;;;;;;;;4.50;99.90;;;;;;5018948;28;19953;-64
2023/12/08 10:14:57;;;;;;;;;;;4.50;99.90;;;;;;5008726;28;19934;-64
2023/12/08 10:17:23;;;;;;;;;;;4.50;99.90;;;;;;5017158;28;19969;-64
2023/12/08 10:19:51;;;;;;;;;;;4.50;99.90;;;;;;5019303;28;20059;-73
2023/12/08 10:22:16;;;;;;;;;;;4.60;99.90;;;;;;5017527;28;20094;-73
2023/12/08 10:24:42;;;;;;;;;;;4.60;99.90;;;;;;5017682;28;20073;-73
2023/12/08 10:27:08;;;;;;;;;;;4.70;99.90;;;;;;5023836;28;19952;-73
2023/12/08 10:29:34;;;;;;;;;;;4.70;99.90;;;;;;5022751;28;20438;-73
2023/12/08 10:32:00;;;;;;;;;;;4.70;99.90;;;;;;5015473;28;19960;-73
2023/12/08 10:34:26;;;;;;;;;;;4.70;99.90;;;;;;5014198;28;19934;-73
2023/12/08 10:37:10;;;;;;;;;;;4.60;99.90;;;;;;5017425;28;20364;-72
2023/12/08 10:39:36;;;;;;;;;;;4.50;99.90;;;;;;5013450;28;19935;-64
2023/12/08 10:42:01;;;;;;;;;;;4.50;99.90;;;;;;5011389;28;20420;-64
2023/12/08 10:44:27;;;;;;;;;;;4.50;99.90;;;;;;5009858;28;19941;-64
2023/12/08 10:46:52;;;;;;;;;;;4.40;99.90;;;;;;5011501;28;19965;-64
2023/12/08 10:49:21;;;;;;;;;;;4.40;99.90;;;;;;5009202;28;19950;-63
2023/12/08 10:51:47;;;;;;;;;;;4.40;99.90;;;;;;5013641;28;19933;-63
2023/12/08 10:54:17;;;;;;;;;;;4.30;99.90;;;;;;5016308;28;19944;-64
2023/12/08 10:56:46;;;;;;;;;;;4.30;99.90;;;;;;5019014;28;20646;-73
2023/12/08 10:59:16;;;;;;;;;;;4.20;99.90;;;;;;5018612;28;19960;-73
2023/12/08 11:01:42;;;;;;;;;;;4.20;99.90;;;;;;5017864;28;19932;-73
2023/12/08 11:04:10;;;;;;;;;;;4.20;99.90;;;;;;5015844;28;19943;-73
2023/12/08 11:06:41;;;;;;;;;;;4.10;99.90;;;;;;5016691;28;19996;-72
2023/12/08 11:09:09;;;;;;;;;;;4.10;99.90;;;;;;5016737;28;20388;-73
2023/12/08 11:11:37;;;;;;;;;;;4.20;99.90;;;;;;5017319;28;19951;-72
2023/12/08 11:14:09;;;;;;;;;;;4.20;99.90;;;;;;5017273;28;20384;-72
2023/12/08 11:16:47;;;;;;;;;;;4.10;99.90;;;;;;5013994;28;20004;-72
2023/12/08 11:19:13;;;;;;;;;;;4.20;99.90;;;;;;5012516;28;20090;-72
2023/12/08 11:21:39;;;;;;;;;;;4.30;99.90;;;;;;5008338;28;21073;-72
2023/12/08 11:24:07;;;;;;;;;;;4.30;99.90;;;;;;5007076;28;19943;-74
2023/12/08 11:26:52;;;;;;;;;;;4.40;99.90;;;;;;5004296;28;20510;-74
2023/12/08 11:29:34;;;;;;;;;;;4.40;99.90;;;;;;5009748;28;19936;-73
2023/12/08 11:32:15;;;;;;;;;;;4.50;99.90;;;;;;5016014;28;20023;-72
2023/12/08 11:34:55;;;;;;;;;;;4.50;99.90;;;;;;5016871;28;19968;-74
2023/12/08 11:37:21;;;;;;;;;;;4.50;99.90;;;;;;5017409;28;19939;-73
2023/12/08 11:39:46;;;;;;;;;;;4.50;99.90;;;;;;5018426;28;19939;-73
2023/12/08 11:42:18;;;;;;;;;;;4.60;99.90;;;;;;5016701;28;19940;-73
2023/12/08 11:44:44;;;;;;;;;;;4.70;99.90;;;;;;5013247;28;20857;-73
2023/12/08 11:47:14;;;;;;;;;;;4.60;99.90;;;;;;5014728;28;19964;-73
2023/12/08 11:49:41;;;;;;;;;;;4.60;99.90;;;;;;5014409;28;20284;-73
2023/12/08 11:52:10;;;;;;;;;;;4.60;99.90;;;;;;5011058;28;19939;-73
2023/12/08 11:54:54;;;;;;;;;;;4.70;99.90;;;;;;5018326;28;20556;-73
2023/12/08 11:57:20;;;;;;;;;;;4.70;99.90;;;;;;5020215;28;19988;-72
2023/12/08 11:59:45;;;;;;;;;;;4.70;99.90;;;;;;5013954;28;19930;-73
2023/12/08 12:02:11;;;;;;;;;;;4.60;99.90;;;;;;5012043;28;19938;-73
2023/12/08 12:04:37;;;;;;;;;;;4.60;99.90;;;;;;4996206;28;19945;-73
2023/12/08 12:07:03;;;;;;;;;;;4.60;99.90;;;;;;5014977;28;20309;-72
2023/12/08 12:09:31;;;;;;;;;;;4.70;99.90;;;;;;5015859;28;19932;-73
2023/12/08 12:11:58;;;;;;;;;;;4.70;99.90;;;;;;5019025;28;20065;-72
2023/12/08 12:14:25;;;;;;;;;;;4.70;99.90;;;;;;5008182;28;19932;-73
2023/12/08 12:16:51;;;;;;;;;;;4.60;99.90;;;;;;5021343;28;20571;-73
2023/12/08 12:19:17;;;;;;;;;;;4.60;99.90;;;;;;5013637;28;19947;-73
2023/12/08 12:21:43;;;;;;;;;;;4.60;99.90;;;;;;5017094;28;19942;-72
2023/12/08 12:24:08;;;;;;;;;;;4.50;99.90;;;;;;5014528;28;20310;-73
2023/12/08 12:26:33;;;;;;;;;;;4.50;99.90;;;;;;5020181;28;19968;-73
2023/12/08 12:28:59;;;;;;;;;;;4.40;99.90;;;;;;5019969;28;20419;-73
2023/12/08 12:31:24;;;;;;;;;;;4.40;99.90;;;;;;5014752;28;19961;-72
2023/12/08 12:33:50;;;;;;;;;;;4.30;99.90;;;;;;5017783;28;19958;-72
2023/12/08 12:36:15;;;;;;;;;;;4.30;99.90;;;;;;5012885;28;19942;-73
2023/12/08 12:38:42;;;;;;;;;;;4.30;99.90;;;;;;5020418;28;20241;-73
2023/12/08 12:41:23;;;;;;;;;;;4.30;99.90;;;;;;5020945;28;20424;-73
2023/12/08 12:43:58;;;;;;;;;;;4.40;99.90;;;;;;5020415;28;19937;-73
2023/12/08 12:46:25;;;;;;;;;;;4.40;99.90;;;;;;5018656;28;20019;-73
2023/12/08 12:48:52;;;;;;;;;;;4.50;99.90;;;;;;5018791;28;20030;-64
2023/12/08 12:51:36;;;;;;;;;;;4.50;99.90;;;;;;5012976;28;19971;-65
2023/12/08 12:54:08;;;;;;;;;;;4.50;99.90;;;;;;5019659;28;19938;-65
2023/12/08 12:56:34;;;;;;;;;;;4.60;99.90;;;;;;5016355;28;19937;-64
2023/12/08 12:59:03;;;;;;;;;;;4.70;99.90;;;;;;5015820;28;19938;-65
2023/12/08 13:01:29;;;;;;;;;;;4.60;99.90;;;;;;5017592;28;20022;-65
2023/12/08 13:03:55;;;;;;;;;;;4.60;99.90;;;;;;5014303;28;20455;-64
2023/12/08 13:06:25;;;;;;;;;;;4.70;99.90;;;;;;5013216;28;20273;-65
2023/12/08 13:08:51;;;;;;;;;;;4.80;99.90;;;;;;5012274;28;19937;-65
2023/12/08 13:11:17;;;;;;;;;;;4.70;99.90;;;;;;5018726;28;19950;-65
2023/12/08 13:13:42;;;;;;;;;;;4.70;99.90;;;;;;5019141;28;20433;-65
2023/12/08 13:16:08;;;;;;;;;;;4.70;99.90;;;;;;5014390;28;19937;-64
2023/12/08 13:18:34;;;;;;;;;;;4.70;99.90;;;;;;5016134;28;19934;-65
2023/12/08 13:21:00;;;;;;;;;;;4.70;99.90;;;;;;5011457;28;19943;-64
2023/12/08 13:23:25;;;;;;;;;;;4.50;99.90;;;;;;5011691;28;20104;-65
2023/12/08 13:25:51;;;;;;;;;;;4.60;99.90;;;;;;5011531;28;19940;-64
2023/12/08 13:28:17;;;;;;;;;;;4.60;99.90;;;;;;5015932;28;19955;-65
2023/12/08 13:30:42;;;;;;;;;;;4.70;99.90;;;;;;5014850;28;20481;-64
2023/12/08 13:33:08;;;;;;;;;;;4.60;99.90;;;;;;5019183;28;20015;-65
2023/12/08 13:35:35;;;;;;;;;;;4.60;99.90;;;;;;5016523;28;19934;-65
2023/12/08 13:38:00;;;;;;;;;;;4.60;99.90;;;;;;5018698;28;19933;-65
2023/12/08 13:40:28;;;;;;;;;;;4.40;99.90;;;;;;5017744;28;20092;-65
2023/12/08 13:42:53;;;;;;;;;;;4.40;99.90;;;;;;5015136;28;20375;-65
2023/12/08 13:45:19;;;;;;;;;;;4.30;99.90;;;;;;5018064;28;20232;-65
2023/12/08 13:47:44;;;;;;;;;;;4.30;99.90;;;;;;5010992;28;21135;-65
2023/12/08 13:50:11;;;;;;;;;;;4.30;99.90;;;;;;5017206;28;20022;-64
2023/12/08 13:52:37;;;;;;;;;;;4.30;99.90;;;;;;5008981;28;19944;-65
2023/12/08 13:55:02;;;;;;;;;;;4.30;99.90;;;;;;5016106;28;19945;-64
2023/12/08 13:57:28;;;;;;;;;;;4.30;99.90;;;;;;5013865;28;20113;-64
2023/12/08 13:59:54;;;;;;;;;;;4.20;99.90;;;;;;5016604;28;19933;-64
2023/12/08 14:02:20;;;;;;;;;;;4.30;99.90;;;;;;5017407;28;19942;-64
2023/12/08 14:04:45;;;;;;;;;;;4.20;99.90;;;;;;5015605;28;19940;-64
2023/12/08 14:07:10;;;;;;;;;;;4.10;99.90;;;;;;5015160;28;19959;-64
2023/12/08 14:09:36;;;;;;;;;;;4.10;99.90;;;;;;5013114;28;19986;-63
2023/12/08 14:12:01;;;;;;;;;;;4.10;99.90;;;;;;5016190;28;19952;-63
2023/12/08 14:14:27;;;;;;;;;;;4.20;99.90;;;;;;5014476;28;20019;-71
2023/12/08 14:16:52;;;;;;;;;;;4.20;99.90;;;;;;5010513;28;20750;-64
2023/12/08 14:19:18;;;;;;;;;;;4.30;99.90;;;;;;5009382;28;20038;-72
2023/12/08 14:21:43;;;;;;;;;;;4.30;99.90;;;;;;4999434;28;20447;-73
2023/12/08 14:24:09;;;;;;;;;;;4.30;99.90;;;;;;5012998;28;19937;-72
2023/12/08 14:26:34;;;;;;;;;;;4.30;99.90;;;;;;5015160;28;20009;-71
2023/12/08 14:29:00;;;;;;;;;;;4.30;99.90;;;;;;5010959;28;19940;-71
2023/12/08 14:31:25;;;;;;;;;;;4.30;99.90;;;;;;5010166;28;19966;-71
2023/12/08 14:33:50;;;;;;;;;;;4.20;99.90;;;;;;5012672;28;20037;-71
2023/12/08 14:36:16;;;;;;;;;;;4.20;99.90;;;;;;5015071;28;19931;-72
2023/12/08 14:38:41;;;;;;;;;;;4.10;99.90;;;;;;5016581;28;20134;-72
2023/12/08 14:41:07;;;;;;;;;;;4.10;99.90;;;;;;5010959;28;19945;-72
2023/12/08 14:43:33;;;;;;;;;;;4.10;99.90;;;;;;5013319;28;20063;-71
2023/12/08 14:45:59;;;;;;;;;;;4.10;99.90;;;;;;5009335;28;20353;-72
2023/12/08 14:48:24;;;;;;;;;;;4.10;99.90;;;;;;5014766;28;19965;-70
2023/12/08 14:50:50;;;;;;;;;;;4.10;99.90;;;;;;5009010;28;20482;-70
2023/12/08 14:53:15;;;;;;;;;;;4.00;99.90;;;;;;5004506;28;20294;-71
2023/12/08 14:55:43;;;;;;;;;;;4.00;99.90;;;;;;5008108;28;20369;-72
2023/12/08 14:58:08;;;;;;;;;;;4.00;99.90;;;;;;5008770;28;20214;-74
2023/12/08 15:00:34;;;;;;;;;;;4.00;99.90;;;;;;5011936;28;19949;-72
2023/12/08 15:02:59;;;;;;;;;;;3.90;99.90;;;;;;4997194;28;19939;-71
2023/12/08 15:05:25;;;;;;;;;;;3.90;99.90;;;;;;5006542;28;19983;-72
2023/12/08 15:07:51;;;;;;;;;;;3.90;99.90;;;;;;5005341;28;20663;-72
2023/12/08 15:10:16;;;;;;;;;;;3.90;99.90;;;;;;4994739;28;20309;-72
2023/12/08 15:12:41;;;;;;;;;;;3.90;99.90;;;;;;5017692;28;20521;-70
2023/12/08 15:15:08;;;;;;;;;;;4.00;99.90;;;;;;5012597;28;19941;-72
2023/12/08 15:17:34;;;;;;;;;;;4.00;99.90;;;;;;5009018;28;20002;-72
2023/12/08 15:20:04;;;;;;;;;;;3.90;99.90;;;;;;5008232;28;19938;-71
2023/12/08 15:22:29;;;;;;;;;;;3.90;99.90;;;;;;5007459;28;19934;-72
2023/12/08 15:24:55;;;;;;;;;;;3.90;99.90;;;;;;5002408;28;19944;-71
2023/12/08 15:27:20;;;;;;;;;;;4.00;99.90;;;;;;5004408;28;20028;-70
2023/12/08 15:29:46;;;;;;;;;;;4.00;99.90;;;;;;4997006;28;19935;-72
2023/12/08 15:32:11;;;;;;;;;;;4.00;99.90;;;;;;4993787;28;20396;-72
2023/12/08 15:34:37;;;;;;;;;;;3.90;99.90;;;;;;5000803;28;19996;-71
2023/12/08 15:37:02;;;;;;;;;;;3.90;99.90;;;;;;4996629;28;19934;-73
2023/12/08 15:39:28;;;;;;;;;;;3.90;99.90;;;;;;5002591;28;19942;-73
2023/12/08 15:41:53;;;;;;;;;;;3.90;99.90;;;;;;5001237;28;20363;-74
2023/12/08 15:44:19;;;;;;;;;;;3.90;99.90;;;;;;4980110;28;19932;-74
2023/12/08 15:46:44;;;;;;;;;;;3.80;99.90;;;;;;5001340;28;19961;-74
2023/12/08 15:49:10;;;;;;;;;;;3.80;99.90;;;;;;5003562;28;24417;-74
2023/12/08 15:51:35;;;;;;;;;;;3.70;99.90;;;;;;4999924;28;20409;-74
2023/12/08 15:54:02;;;;;;;;;;;3.80;99.90;;;;;;5001938;28;20418;-73
2023/12/08 15:56:28;;;;;;;;;;;3.80;99.90;;;;;;5008268;28;19961;-71
2023/12/08 15:58:55;;;;;;;;;;;3.90;99.90;;;;;;5005487;28;20652;-71
2023/12/08 16:01:22;;;;;;;;;;;3.90;99.90;;;;;;5005204;28;20394;-71
2023/12/08 16:03:47;;;;;;;;;;;3.90;99.90;;;;;;5006885;28;20216;-69
2023/12/08 16:06:13;;;;;;;;;;;3.80;99.90;;;;;;4998329;28;20027;-71
2023/12/08 16:08:43;;;;;;;;;;;3.80;99.90;;;;;;4984400;28;20050;-71
2023/12/08 16:11:08;;;;;;;;;;;3.80;99.90;;;;;;4994343;28;19949;-65
2023/12/08 16:13:36;;;;;;;;;;;3.80;99.90;;;;;;5005597;28;19948;-65
2023/12/08 16:16:08;;;;;;;;;;;3.70;99.90;;;;;;5003037;28;19943;-65
2023/12/08 16:18:34;;;;;;;;;;;3.70;99.90;;;;;;5010609;28;20001;-65
2023/12/08 16:21:02;;;;;;;;;;;3.70;99.90;;;;;;5005946;28;19944;-66
2023/12/08 16:23:28;;;;;;;;;;;3.70;99.90;;;;;;5009004;28;20400;-66
2023/12/08 16:25:58;;;;;;;;;;;3.60;99.90;;;;;;4996234;28;20054;-65
2023/12/08 16:28:25;;;;;;;;;;;3.60;99.90;;;;;;5010225;28;20564;-65
2023/12/08 16:30:50;;;;;;;;;;;3.70;99.90;;;;;;5009462;28;20055;-65
2023/12/08 16:33:16;;;;;;;;;;;3.60;99.90;;;;;;5010373;28;20421;-66
2023/12/08 16:35:41;;;;;;;;;;;3.70;99.90;;;;;;5010609;28;19944;-66
2023/12/08 16:38:06;;;;;;;;;;;3.70;99.90;;;;;;5010284;28;20743;-66
2023/12/08 16:40:33;;;;;;;;;;;3.70;99.90;;;;;;5006453;28;19944;-65
2023/12/08 16:42:59;;;;;;;;;;;3.70;99.90;;;;;;5008563;28;20012;-65
2023/12/08 16:45:25;;;;;;;;;;;3.80;99.90;;;;;;5007081;28;19935;-65
2023/12/08 16:47:50;;;;;;;;;;;3.70;99.90;;;;;;5011023;28;20014;-65
2023/12/08 16:50:16;;;;;;;;;;;3.70;99.90;;;;;;5009286;28;20415;-65
2023/12/08 16:52:41;;;;;;;;;;;3.70;99.90;;;;;;5006852;28;19937;-65
2023/12/08 16:55:07;;;;;;;;;;;3.80;99.90;;;;;;5012709;28;20751;-66
2023/12/08 16:57:32;;;;;;;;;;;3.80;99.90;;;;;;5016552;28;20523;-65
2023/12/08 16:59:58;;;;;;;;;;;3.80;99.90;;;;;;5004012;28;19943;-65
2023/12/08 17:02:23;;;;;;;;;;;3.80;99.90;;;;;;5010989;28;20374;-65
2023/12/08 17:04:49;;;;;;;;;;;3.80;99.90;;;;;;5006388;28;19945;-65
2023/12/08 17:07:14;;;;;;;;;;;3.70;99.90;;;;;;4991116;28;20398;-65
2023/12/08 17:09:40;;;;;;;;;;;3.80;99.90;;;;;;5009610;28;19994;-65
2023/12/08 17:12:07;;;;;;;;;;;3.80;99.90;;;;;;4999981;28;19965;-65
2023/12/08 17:14:32;;;;;;;;;;;3.70;99.90;;;;;;5012738;28;19932;-66
2023/12/08 17:16:58;;;;;;;;;;;3.70;99.90;;;;;;5009890;28;19934;-66
2023/12/08 17:19:23;;;;;;;;;;;3.70;99.90;;;;;;5007080;28;19940;-66
2023/12/08 17:21:49;;;;;;;;;;;3.70;99.90;;;;;;5009460;28;20043;-66
2023/12/08 17:24:14;;;;;;;;;;;3.70;99.90;;;;;;4990993;28;19936;-66
2023/12/08 17:26:40;;;;;;;;;;;3.70;99.90;;;;;;5008287;28;19960;-66
2023/12/08 17:29:05;;;;;;;;;;;3.70;99.90;;;;;;5004219;28;19936;-67
2023/12/08 17:31:31;;;;;;;;;;;3.80;99.90;;;;;;5005452;28;19968;-65
2023/12/08 17:33:56;;;;;;;;;;;3.90;99.90;;;;;;5011953;28;20389;-66
2023/12/08 17:36:22;;;;;;;;;;;3.90;99.90;;;;;;5006255;28;19959;-66
2023/12/08 17:38:47;;;;;;;;;;;3.90;99.90;;;;;;5007310;28;19935;-65
2023/12/08 17:41:13;;;;;;;;;;;3.90;99.90;;;;;;5011862;28;20029;-70
2023/12/08 17:43:38;;;;;;;;;;;4.00;99.90;;;;;;5009796;28;19941;-70
2023/12/08 17:46:04;;;;;;;;;;;3.90;99.90;;;;;;5009307;28;19960;-70
2023/12/08 17:48:29;;;;;;;;;;;3.90;99.90;;;;;;5001968;28;19984;-71
2023/12/08 17:50:58;;;;;;;;;;;3.90;99.90;;;;;;5008848;28;19969;-71
2023/12/08 17:53:24;;;;;;;;;;;3.90;99.90;;;;;;5010854;28;20426;-70
2023/12/08 17:55:49;;;;;;;;;;;3.90;99.90;;;;;;5007760;28;19946;-71
2023/12/08 17:58:15;;;;;;;;;;;3.90;99.90;;;;;;5008420;28;19940;-70
2023/12/08 18:00:40;;;;;;;;;;;3.90;99.90;;;;;;5016373;28;19934;-68
2023/12/08 18:03:06;;;;;;;;;;;3.90;99.90;;;;;;5013077;28;20727;-66
2023/12/08 18:05:31;;;;;;;;;;;3.80;99.90;;;;;;5018449;28;19943;-67
2023/12/08 18:07:56;;;;;;;;;;;3.70;99.90;;;;;;5012806;28;20097;-66
2023/12/08 18:10:22;;;;;;;;;;;3.70;99.90;;;;;;5016520;28;19943;-65
2023/12/08 18:12:47;;;;;;;;;;;3.60;99.90;;;;;;5015200;28;20391;-67
2023/12/08 18:15:13;;;;;;;;;;;3.60;99.90;;;;;;5013420;28;19938;-67
2023/12/08 18:17:38;;;;;;;;;;;3.60;99.90;;;;;;5011746;28;19932;-67
2023/12/08 18:20:05;;;;;;;;;;;3.60;99.90;;;;;;5016100;28;19939;-69
2023/12/08 18:22:33;;;;;;;;;;;3.50;99.90;;;;;;5015109;28;19936;-70
2023/12/08 18:24:58;;;;;;;;;;;3.60;99.90;;;;;;5016374;28;20513;-70
2023/12/08 18:27:24;;;;;;;;;;;3.60;99.90;;;;;;5015748;28;19966;-69
2023/12/08 18:29:50;;;;;;;;;;;3.70;99.90;;;;;;5014912;28;19940;-70
2023/12/08 18:32:15;;;;;;;;;;;3.80;99.90;;;;;;5015321;28;20028;-70
2023/12/08 18:34:40;;;;;;;;;;;3.70;99.90;;;;;;5013776;28;20214;-69
2023/12/08 18:37:06;;;;;;;;;;;3.60;99.90;;;;;;5017322;28;19969;-70
2023/12/08 18:39:31;;;;;;;;;;;3.60;99.90;;;;;;5015018;28;20372;-70
2023/12/08 18:41:57;;;;;;;;;;;3.50;99.90;;;;;;5015773;28;20354;-69
2023/12/08 18:44:22;;;;;;;;;;;3.40;99.90;;;;;;5014730;28;20630;-69
2023/12/08 18:46:48;;;;;;;;;;;3.40;99.90;;;;;;4994719;28;19966;-70
2023/12/08 18:49:14;;;;;;;;;;;3.40;99.90;;;;;;5004970;28;20344;-70
2023/12/08 18:51:42;;;;;;;;;;;3.20;99.90;;;;;;5012322;28;20026;-70
2023/12/08 18:54:07;;;;;;;;;;;3.20;99.90;;;;;;5014416;28;19945;-69
2023/12/08 18:56:33;;;;;;;;;;;3.30;99.90;;;;;;5014484;28;19939;-66
2023/12/08 18:58:59;;;;;;;;;;;3.30;99.90;;;;;;5013480;28;20052;-66
2023/12/08 19:01:25;;;;;;;;;;;3.30;99.90;;;;;;4997429;28;20482;-66
2023/12/08 19:03:50;;;;;;;;;;;3.30;99.90;;;;;;5014677;28;19944;-66
2023/12/08 19:06:16;;;;;;;;;;;3.30;99.90;;;;;;5011534;28;20063;-66
2023/12/08 19:08:42;;;;;;;;;;;3.10;99.90;;;;;;5010738;28;19964;-66
2023/12/08 19:11:07;;;;;;;;;;;3.00;99.90;;;;;;5015408;28;19953;-67
2023/12/08 19:13:32;;;;;;;;;;;3.00;99.90;;;;;;5012568;28;19935;-66
2023/12/08 19:15:58;;;;;;;;;;;3.00;99.90;;;;;;5014020;28;19983;-66
2023/12/08 19:18:24;;;;;;;;;;;3.10;99.90;;;;;;5013981;28;19978;-66
2023/12/08 19:20:49;;;;;;;;;;;3.00;99.90;;;;;;5008586;28;20042;-66
2023/12/08 19:23:15;;;;;;;;;;;3.00;99.90;;;;;;5015440;28;19935;-66
2023/12/08 19:25:43;;;;;;;;;;;2.90;99.90;;;;;;5018561;28;19944;-67
2023/12/08 19:28:12;;;;;;;;;;;2.90;99.90;;;;;;5010262;28;20061;-66
2023/12/08 19:30:38;;;;;;;;;;;2.90;99.90;;;;;;5011487;28;20480;-66
2023/12/08 19:33:04;;;;;;;;;;;2.90;99.90;;;;;;5007058;28;19938;-70
2023/12/08 19:35:30;;;;;;;;;;;2.90;99.90;;;;;;5020395;28;19960;-70
2023/12/08 19:37:57;;;;;;;;;;;2.90;99.90;;;;;;5017301;28;19938;-70
2023/12/08 19:40:23;;;;;;;;;;;3.00;99.90;;;;;;5018022;28;19937;-69
2023/12/08 19:42:49;;;;;;;;;;;3.10;99.90;;;;;;5017838;28;19936;-69
2023/12/08 19:45:14;;;;;;;;;;;3.20;99.90;;;;;;5010498;28;19934;-70
2023/12/08 19:47:40;;;;;;;;;;;3.20;99.90;;;;;;5013114;28;19961;-70
2023/12/08 19:50:05;;;;;;;;;;;3.10;99.90;;;;;;5010232;28;19987;-69
2023/12/08 19:52:31;;;;;;;;;;;3.20;99.90;;;;;;5011468;28;19942;-69
2023/12/08 19:54:57;;;;;;;;;;;3.30;99.90;;;;;;5012671;28;19942;-69
2023/12/08 19:57:23;;;;;;;;;;;3.30;99.90;;;;;;5008425;28;20375;-72
2023/12/08 19:59:50;;;;;;;;;;;3.30;99.90;;;;;;5012339;28;20023;-69
2023/12/08 20:02:24;;;;;;;;;;;3.30;99.90;;;;;;5009732;28;19978;-69
2023/12/08 20:04:50;;;;;;;;;;;3.20;99.90;;;;;;5011237;28;20401;-71
2023/12/08 20:07:16;;;;;;;;;;;3.30;99.90;;;;;;4999370;28;19965;-70
2023/12/08 20:09:41;;;;;;;;;;;3.30;99.90;;;;;;5006899;28;20587;-72
2023/12/08 20:12:10;;;;;;;;;;;3.30;99.90;;;;;;5010616;28;19997;-71
2023/12/08 20:14:36;;;;;;;;;;;3.40;99.90;;;;;;5011512;28;20614;-71
2023/12/08 20:17:02;;;;;;;;;;;3.40;99.90;;;;;;5004152;28;19936;-71
2023/12/08 20:19:28;;;;;;;;;;;3.40;99.90;;;;;;5014713;28;19952;-70
2023/12/08 20:21:53;;;;;;;;;;;3.50;99.90;;;;;;4996287;28;19932;-71
2023/12/08 20:24:19;;;;;;;;;;;3.50;99.90;;;;;;5014222;28;19936;-71
2023/12/08 20:26:45;;;;;;;;;;;3.60;99.90;;;;;;5015741;28;19934;-69
2023/12/08 20:29:15;;;;;;;;;;;3.50;99.90;;;;;;5015798;28;20412;-65
2023/12/08 20:31:41;;;;;;;;;;;3.60;99.90;;;;;;5015619;28;19968;-66
2023/12/08 20:34:06;;;;;;;;;;;3.50;99.90;;;;;;5010769;28;20015;-65
2023/12/08 20:36:32;;;;;;;;;;;3.50;99.90;;;;;;5010500;28;19942;-66
2023/12/08 20:38:57;;;;;;;;;;;3.40;99.90;;;;;;5015316;28;20026;-66
2023/12/08 20:41:23;;;;;;;;;;;3.50;99.90;;;;;;5021408;28;20035;-66
2023/12/08 20:43:51;;;;;;;;;;;3.40;99.90;;;;;;5020262;28;20320;-65
2023/12/08 20:46:17;;;;;;;;;;;3.40;99.90;;;;;;5019084;28;19953;-65
2023/12/08 20:48:43;;;;;;;;;;;3.40;99.90;;;;;;5017006;28;19964;-65
2023/12/08 20:51:09;;;;;;;;;;;3.30;99.90;;;;;;5007667;28;20032;-65
2023/12/08 20:53:34;;;;;;;;;;;3.30;99.90;;;;;;5011260;28;20494;-72
2023/12/08 20:56:08;;;;;;;;;;;3.30;99.90;;;;;;5012321;28;19943;-65
2023/12/08 20:58:34;;;;;;;;;;;3.40;99.90;;;;;;5010495;28;19942;-65
2023/12/08 21:01:00;;;;;;;;;;;3.30;99.90;;;;;;5014099;28;19942;-66
2023/12/08 21:03:25;;;;;;;;;;;3.30;99.90;;;;;;5013653;28;19940;-66
2023/12/08 21:05:51;;;;;;;;;;;3.30;99.90;;;;;;5006925;28;19969;-67
2023/12/08 21:08:16;;;;;;;;;;;3.20;99.90;;;;;;5013517;28;20524;-66
2023/12/08 21:10:42;;;;;;;;;;;3.30;99.90;;;;;;5016695;28;19948;-66
2023/12/08 21:13:07;;;;;;;;;;;3.30;99.90;;;;;;5017927;28;19932;-66
2023/12/08 21:15:33;;;;;;;;;;;3.20;99.90;;;;;;5011535;28;20179;-66
2023/12/08 21:17:58;;;;;;;;;;;3.20;99.90;;;;;;5004285;28;19931;-67
2023/12/08 21:20:23;;;;;;;;;;;3.20;99.90;;;;;;5011564;28;19935;-67
2023/12/08 21:22:49;;;;;;;;;;;3.20;99.90;;;;;;5009195;28;20067;-71
2023/12/08 21:25:16;;;;;;;;;;;3.30;99.90;;;;;;5005764;28;20402;-71
2023/12/08 21:27:43;;;;;;;;;;;3.30;99.90;;;;;;5001679;28;19967;-70
2023/12/08 21:30:09;;;;;;;;;;;3.20;99.90;;;;;;5003447;28;19939;-71
2023/12/08 21:32:35;;;;;;;;;;;3.20;99.90;;;;;;5009971;28;20003;-71
2023/12/08 21:35:03;;;;;;;;;;;3.20;99.90;;;;;;5002047;28;19934;-71
2023/12/08 21:37:29;;;;;;;;;;;3.20;99.90;;;;;;5008652;28;20018;-70
2023/12/08 21:39:55;;;;;;;;;;;3.10;99.90;;;;;;5014072;28;20022;-70
2023/12/08 21:42:20;;;;;;;;;;;3.10;99.90;;;;;;5016038;28;19945;-70
2023/12/08 21:44:46;;;;;;;;;;;3.10;99.90;;;;;;5014789;28;20449;-70
2023/12/08 21:47:12;;;;;;;;;;;3.10;99.90;;;;;;5009915;28;19964;-71
2023/12/08 21:49:38;;;;;;;;;;;3.10;99.90;;;;;;4993971;28;19948;-70
2023/12/08 21:52:05;;;;;;;;;;;3.20;99.90;;;;;;5011182;28;19941;-70
2023/12/08 21:54:30;;;;;;;;;;;3.20;99.90;;;;;;5012248;28;19947;-71
2023/12/08 21:56:57;;;;;;;;;;;3.10;99.90;;;;;;5005313;28;20040;-71